sensor_id;sensor_type;location;lat;lon;timestamp;P1;durP1;ratioP1;P2;durP2;ratioP2
30583;SDS011;17357;59.404;18.414;2022-07-23T00:00:45;1.35;;;0.60;;
30583;SDS011;17357;59.404;18.414;2022-07-23T00:03:12;0.93;;;0.50;;
30583;SDS011;17357;59.404;18.414;2022-07-23T00:05:37;0.73;;;0.50;;
30583;SDS011;17357;59.404;18.414;2022-07-23T00:08:03;1.92;;;0.68;;
30583;SDS011;17357;59.404;18.414;2022-07-23T00:10:28;1.65;;;0.50;;
30583;SDS011;17357;59.404;18.414;2022-07-23T00:12:53;1.23;;;0.60;;
30583;SDS011;17357;59.404;18.414;2022-07-23T00:15:19;1.00;;;0.57;;
30583;SDS011;17357;59.404;18.414;2022-07-23T00:17:44;1.05;;;0.60;;
30583;SDS011;17357;59.404;18.414;2022-07-23T00:20:09;2.05;;;0.90;;
30583;SDS011;17357;59.404;18.414;2022-07-23T00:22:35;1.35;;;0.50;;
30583;SDS011;17357;59.404;18.414;2022-07-23T00:25:00;0.45;;;0.40;;
30583;SDS011;17357;59.404;18.414;2022-07-23T00:27:26;0.40;;;0.30;;
30583;SDS011;17357;59.404;18.414;2022-07-23T00:29:51;2.08;;;0.80;;
30583;SDS011;17357;59.404;18.414;2022-07-23T00:32:16;1.65;;;0.60;;
30583;SDS011;17357;59.404;18.414;2022-07-23T00:34:42;1.00;;;0.60;;
30583;SDS011;17357;59.404;18.414;2022-07-23T00:37:07;1.77;;;0.70;;
30583;SDS011;17357;59.404;18.414;2022-07-23T00:39:32;1.08;;;0.80;;
30583;SDS011;17357;59.404;18.414;2022-07-23T00:41:58;2.00;;;0.73;;
30583;SDS011;17357;59.404;18.414;2022-07-23T00:44:24;1.48;;;0.80;;
30583;SDS011;17357;59.404;18.414;2022-07-23T00:46:52;1.70;;;0.77;;
30583;SDS011;17357;59.404;18.414;2022-07-23T00:49:23;1.65;;;0.75;;
30583;SDS011;17357;59.404;18.414;2022-07-23T00:54:16;1.40;;;0.50;;
30583;SDS011;17357;59.404;18.414;2022-07-23T00:56:42;0.60;;;0.60;;
30583;SDS011;17357;59.404;18.414;2022-07-23T00:59:09;1.38;;;0.60;;
30583;SDS011;17357;59.404;18.414;2022-07-23T01:01:34;1.73;;;0.80;;
30583;SDS011;17357;59.404;18.414;2022-07-23T01:04:00;0.80;;;0.70;;
30583;SDS011;17357;59.404;18.414;2022-07-23T01:06:25;0.68;;;0.43;;
30583;SDS011;17357;59.404;18.414;2022-07-23T01:08:50;1.63;;;0.80;;
30583;SDS011;17357;59.404;18.414;2022-07-23T01:11:17;1.15;;;0.65;;
30583;SDS011;17357;59.404;18.414;2022-07-23T01:13:43;1.75;;;0.68;;
30583;SDS011;17357;59.404;18.414;2022-07-23T01:16:09;0.73;;;0.68;;
30583;SDS011;17357;59.404;18.414;2022-07-23T01:18:34;1.30;;;0.60;;
30583;SDS011;17357;59.404;18.414;2022-07-23T01:20:59;0.70;;;0.45;;
30583;SDS011;17357;59.404;18.414;2022-07-23T01:23:24;1.65;;;0.50;;
30583;SDS011;17357;59.404;18.414;2022-07-23T01:25:53;1.17;;;0.70;;
30583;SDS011;17357;59.404;18.414;2022-07-23T01:28:19;1.80;;;0.70;;
30583;SDS011;17357;59.404;18.414;2022-07-23T01:30:45;1.45;;;0.70;;
30583;SDS011;17357;59.404;18.414;2022-07-23T01:33:11;1.58;;;0.80;;
30583;SDS011;17357;59.404;18.414;2022-07-23T01:35:36;1.50;;;0.70;;
30583;SDS011;17357;59.404;18.414;2022-07-23T01:38:01;1.60;;;0.73;;
30583;SDS011;17357;59.404;18.414;2022-07-23T01:40:27;1.48;;;0.52;;
30583;SDS011;17357;59.404;18.414;2022-07-23T01:42:52;0.80;;;0.50;;
30583;SDS011;17357;59.404;18.414;2022-07-23T01:45:17;1.85;;;1.00;;
30583;SDS011;17357;59.404;18.414;2022-07-23T01:47:43;1.58;;;0.70;;
30583;SDS011;17357;59.404;18.414;2022-07-23T01:50:08;1.63;;;0.77;;
30583;SDS011;17357;59.404;18.414;2022-07-23T01:52:34;1.90;;;0.80;;
30583;SDS011;17357;59.404;18.414;2022-07-23T01:54:59;1.70;;;0.80;;
30583;SDS011;17357;59.404;18.414;2022-07-23T01:57:24;1.23;;;0.80;;
30583;SDS011;17357;59.404;18.414;2022-07-23T01:59:49;1.60;;;0.70;;
30583;SDS011;17357;59.404;18.414;2022-07-23T02:02:15;1.53;;;0.80;;
30583;SDS011;17357;59.404;18.414;2022-07-23T02:04:40;0.77;;;0.50;;
30583;SDS011;17357;59.404;18.414;2022-07-23T02:07:05;1.13;;;0.68;;
30583;SDS011;17357;59.404;18.414;2022-07-23T02:09:31;1.00;;;0.45;;
30583;SDS011;17357;59.404;18.414;2022-07-23T02:11:56;1.00;;;0.60;;
30583;SDS011;17357;59.404;18.414;2022-07-23T02:14:22;3.00;;;0.75;;
30583;SDS011;17357;59.404;18.414;2022-07-23T02:16:48;1.25;;;0.60;;
30583;SDS011;17357;59.404;18.414;2022-07-23T02:19:13;1.23;;;0.68;;
30583;SDS011;17357;59.404;18.414;2022-07-23T02:21:38;1.93;;;0.90;;
30583;SDS011;17357;59.404;18.414;2022-07-23T02:24:04;0.95;;;0.70;;
30583;SDS011;17357;59.404;18.414;2022-07-23T02:26:29;1.77;;;0.60;;
30583;SDS011;17357;59.404;18.414;2022-07-23T02:28:57;0.82;;;0.45;;
30583;SDS011;17357;59.404;18.414;2022-07-23T02:31:22;2.45;;;0.70;;
30583;SDS011;17357;59.404;18.414;2022-07-23T02:33:47;1.63;;;0.77;;
30583;SDS011;17357;59.404;18.414;2022-07-23T02:36:13;1.07;;;0.90;;
30583;SDS011;17357;59.404;18.414;2022-07-23T02:38:38;0.83;;;0.40;;
30583;SDS011;17357;59.404;18.414;2022-07-23T02:41:03;1.27;;;0.63;;
30583;SDS011;17357;59.404;18.414;2022-07-23T02:43:28;1.20;;;0.77;;
30583;SDS011;17357;59.404;18.414;2022-07-23T02:45:54;0.90;;;0.50;;
30583;SDS011;17357;59.404;18.414;2022-07-23T02:48:19;0.60;;;0.60;;
30583;SDS011;17357;59.404;18.414;2022-07-23T02:50:44;1.63;;;0.57;;
30583;SDS011;17357;59.404;18.414;2022-07-23T02:53:09;1.13;;;0.80;;
30583;SDS011;17357;59.404;18.414;2022-07-23T02:55:35;3.03;;;0.90;;
30583;SDS011;17357;59.404;18.414;2022-07-23T02:58:00;0.47;;;0.28;;
30583;SDS011;17357;59.404;18.414;2022-07-23T03:00:25;0.47;;;0.37;;
30583;SDS011;17357;59.404;18.414;2022-07-23T03:02:51;0.90;;;0.45;;
30583;SDS011;17357;59.404;18.414;2022-07-23T03:05:16;0.73;;;0.50;;
30583;SDS011;17357;59.404;18.414;2022-07-23T03:07:41;3.13;;;0.63;;
30583;SDS011;17357;59.404;18.414;2022-07-23T03:10:07;2.30;;;0.70;;
30583;SDS011;17357;59.404;18.414;2022-07-23T03:12:32;0.65;;;0.45;;
30583;SDS011;17357;59.404;18.414;2022-07-23T03:14:57;1.25;;;0.70;;
30583;SDS011;17357;59.404;18.414;2022-07-23T03:17:23;0.93;;;0.50;;
30583;SDS011;17357;59.404;18.414;2022-07-23T03:19:48;0.80;;;0.45;;
30583;SDS011;17357;59.404;18.414;2022-07-23T03:22:13;0.40;;;0.40;;
30583;SDS011;17357;59.404;18.414;2022-07-23T03:24:39;1.77;;;0.43;;
30583;SDS011;17357;59.404;18.414;2022-07-23T03:27:19;1.25;;;0.52;;
30583;SDS011;17357;59.404;18.414;2022-07-23T03:29:46;0.50;;;0.40;;
30583;SDS011;17357;59.404;18.414;2022-07-23T03:32:11;1.98;;;0.75;;
30583;SDS011;17357;59.404;18.414;2022-07-23T03:34:36;0.57;;;0.40;;
30583;SDS011;17357;59.404;18.414;2022-07-23T03:37:02;1.15;;;0.68;;
30583;SDS011;17357;59.404;18.414;2022-07-23T03:39:27;0.73;;;0.40;;
30583;SDS011;17357;59.404;18.414;2022-07-23T03:41:53;0.70;;;0.40;;
30583;SDS011;17357;59.404;18.414;2022-07-23T03:44:18;1.42;;;0.40;;
30583;SDS011;17357;59.404;18.414;2022-07-23T03:46:43;0.55;;;0.30;;
30583;SDS011;17357;59.404;18.414;2022-07-23T03:49:08;2.90;;;0.40;;
30583;SDS011;17357;59.404;18.414;2022-07-23T03:51:34;0.35;;;0.30;;
30583;SDS011;17357;59.404;18.414;2022-07-23T03:54:00;0.40;;;0.30;;
30583;SDS011;17357;59.404;18.414;2022-07-23T03:56:25;0.60;;;0.40;;
30583;SDS011;17357;59.404;18.414;2022-07-23T03:58:51;0.82;;;0.38;;
30583;SDS011;17357;59.404;18.414;2022-07-23T04:01:16;0.77;;;0.40;;
30583;SDS011;17357;59.404;18.414;2022-07-23T04:03:41;1.13;;;0.40;;
30583;SDS011;17357;59.404;18.414;2022-07-23T04:06:07;0.63;;;0.43;;
30583;SDS011;17357;59.404;18.414;2022-07-23T04:08:32;0.22;;;0.22;;
30583;SDS011;17357;59.404;18.414;2022-07-23T04:10:57;0.32;;;0.20;;
30583;SDS011;17357;59.404;18.414;2022-07-23T04:13:23;1.95;;;0.60;;
30583;SDS011;17357;59.404;18.414;2022-07-23T04:15:48;0.93;;;0.30;;
30583;SDS011;17357;59.404;18.414;2022-07-23T04:18:14;0.40;;;0.28;;
30583;SDS011;17357;59.404;18.414;2022-07-23T04:20:42;0.20;;;0.20;;
30583;SDS011;17357;59.404;18.414;2022-07-23T04:23:08;0.50;;;0.40;;
30583;SDS011;17357;59.404;18.414;2022-07-23T04:25:34;0.68;;;0.30;;
30583;SDS011;17357;59.404;18.414;2022-07-23T04:27:59;1.00;;;0.38;;
30583;SDS011;17357;59.404;18.414;2022-07-23T04:30:25;1.13;;;0.30;;
30583;SDS011;17357;59.404;18.414;2022-07-23T04:32:50;1.85;;;0.88;;
30583;SDS011;17357;59.404;18.414;2022-07-23T04:35:15;1.33;;;0.47;;
30583;SDS011;17357;59.404;18.414;2022-07-23T04:37:40;0.67;;;0.30;;
30583;SDS011;17357;59.404;18.414;2022-07-23T04:40:06;0.40;;;0.30;;
30583;SDS011;17357;59.404;18.414;2022-07-23T04:42:31;0.60;;;0.20;;
30583;SDS011;17357;59.404;18.414;2022-07-23T04:44:57;0.30;;;0.23;;
30583;SDS011;17357;59.404;18.414;2022-07-23T04:47:22;0.28;;;0.28;;
30583;SDS011;17357;59.404;18.414;2022-07-23T04:49:47;0.20;;;0.20;;
30583;SDS011;17357;59.404;18.414;2022-07-23T04:52:12;0.20;;;0.20;;
30583;SDS011;17357;59.404;18.414;2022-07-23T04:54:38;0.50;;;0.40;;
30583;SDS011;17357;59.404;18.414;2022-07-23T04:57:03;0.27;;;0.23;;
30583;SDS011;17357;59.404;18.414;2022-07-23T04:59:28;0.37;;;0.20;;
30583;SDS011;17357;59.404;18.414;2022-07-23T05:01:53;0.40;;;0.20;;
30583;SDS011;17357;59.404;18.414;2022-07-23T05:04:19;0.70;;;0.32;;
30583;SDS011;17357;59.404;18.414;2022-07-23T05:06:44;2.15;;;0.50;;
30583;SDS011;17357;59.404;18.414;2022-07-23T05:09:09;0.73;;;0.30;;
30583;SDS011;17357;59.404;18.414;2022-07-23T05:11:34;0.47;;;0.20;;
30583;SDS011;17357;59.404;18.414;2022-07-23T05:14:00;1.33;;;0.30;;
30583;SDS011;17357;59.404;18.414;2022-07-23T05:16:25;0.75;;;0.20;;
30583;SDS011;17357;59.404;18.414;2022-07-23T05:18:50;0.28;;;0.20;;
30583;SDS011;17357;59.404;18.414;2022-07-23T05:21:16;0.30;;;0.20;;
30583;SDS011;17357;59.404;18.414;2022-07-23T05:23:41;0.30;;;0.20;;
30583;SDS011;17357;59.404;18.414;2022-07-23T05:26:06;0.38;;;0.20;;
30583;SDS011;17357;59.404;18.414;2022-07-23T05:28:31;0.85;;;0.20;;
30583;SDS011;17357;59.404;18.414;2022-07-23T05:30:57;0.63;;;0.17;;
30583;SDS011;17357;59.404;18.414;2022-07-23T05:33:22;1.55;;;0.30;;
30583;SDS011;17357;59.404;18.414;2022-07-23T05:35:47;0.70;;;0.30;;
30583;SDS011;17357;59.404;18.414;2022-07-23T05:38:12;0.63;;;0.20;;
30583;SDS011;17357;59.404;18.414;2022-07-23T05:40:38;2.28;;;0.38;;
30583;SDS011;17357;59.404;18.414;2022-07-23T05:43:03;0.20;;;0.13;;
30583;SDS011;17357;59.404;18.414;2022-07-23T05:45:28;0.80;;;0.50;;
30583;SDS011;17357;59.404;18.414;2022-07-23T05:47:54;0.55;;;0.20;;
30583;SDS011;17357;59.404;18.414;2022-07-23T05:50:19;0.33;;;0.33;;
30583;SDS011;17357;59.404;18.414;2022-07-23T05:52:44;0.40;;;0.20;;
30583;SDS011;17357;59.404;18.414;2022-07-23T05:55:10;0.13;;;0.13;;
30583;SDS011;17357;59.404;18.414;2022-07-23T05:57:37;1.55;;;0.30;;
30583;SDS011;17357;59.404;18.414;2022-07-23T06:00:03;0.38;;;0.15;;
30583;SDS011;17357;59.404;18.414;2022-07-23T06:02:30;0.80;;;0.30;;
30583;SDS011;17357;59.404;18.414;2022-07-23T06:04:55;0.60;;;0.25;;
30583;SDS011;17357;59.404;18.414;2022-07-23T06:07:20;0.22;;;0.20;;
30583;SDS011;17357;59.404;18.414;2022-07-23T06:09:46;1.15;;;0.25;;
30583;SDS011;17357;59.404;18.414;2022-07-23T06:12:12;0.80;;;0.20;;
30583;SDS011;17357;59.404;18.414;2022-07-23T06:14:37;0.47;;;0.28;;
30583;SDS011;17357;59.404;18.414;2022-07-23T06:17:02;0.30;;;0.20;;
30583;SDS011;17357;59.404;18.414;2022-07-23T06:19:28;1.23;;;0.30;;
30583;SDS011;17357;59.404;18.414;2022-07-23T06:21:53;1.25;;;0.25;;
30583;SDS011;17357;59.404;18.414;2022-07-23T06:24:18;1.25;;;0.32;;
30583;SDS011;17357;59.404;18.414;2022-07-23T06:26:43;0.10;;;0.10;;
30583;SDS011;17357;59.404;18.414;2022-07-23T06:29:09;0.60;;;0.17;;
30583;SDS011;17357;59.404;18.414;2022-07-23T06:31:35;1.38;;;0.40;;
30583;SDS011;17357;59.404;18.414;2022-07-23T06:34:00;1.38;;;0.17;;
30583;SDS011;17357;59.404;18.414;2022-07-23T06:36:26;0.75;;;0.20;;
30583;SDS011;17357;59.404;18.414;2022-07-23T06:38:51;0.63;;;0.20;;
30583;SDS011;17357;59.404;18.414;2022-07-23T06:41:17;0.77;;;0.20;;
30583;SDS011;17357;59.404;18.414;2022-07-23T06:43:42;1.45;;;0.22;;
30583;SDS011;17357;59.404;18.414;2022-07-23T06:46:07;1.05;;;0.17;;
30583;SDS011;17357;59.404;18.414;2022-07-23T06:48:33;0.50;;;0.20;;
30583;SDS011;17357;59.404;18.414;2022-07-23T06:51:00;0.52;;;0.20;;
30583;SDS011;17357;59.404;18.414;2022-07-23T06:53:25;0.60;;;0.25;;
30583;SDS011;17357;59.404;18.414;2022-07-23T06:55:51;0.30;;;0.10;;
30583;SDS011;17357;59.404;18.414;2022-07-23T06:58:16;1.17;;;0.30;;
30583;SDS011;17357;59.404;18.414;2022-07-23T07:00:41;0.30;;;0.20;;
30583;SDS011;17357;59.404;18.414;2022-07-23T07:03:06;0.23;;;0.20;;
30583;SDS011;17357;59.404;18.414;2022-07-23T07:05:32;0.20;;;0.20;;
30583;SDS011;17357;59.404;18.414;2022-07-23T07:07:57;0.33;;;0.30;;
30583;SDS011;17357;59.404;18.414;2022-07-23T07:10:22;0.60;;;0.10;;
30583;SDS011;17357;59.404;18.414;2022-07-23T07:12:48;0.80;;;0.35;;
30583;SDS011;17357;59.404;18.414;2022-07-23T07:15:13;0.20;;;0.20;;
30583;SDS011;17357;59.404;18.414;2022-07-23T07:17:39;0.75;;;0.20;;
30583;SDS011;17357;59.404;18.414;2022-07-23T07:20:04;0.45;;;0.20;;
30583;SDS011;17357;59.404;18.414;2022-07-23T07:22:30;0.40;;;0.15;;
30583;SDS011;17357;59.404;18.414;2022-07-23T07:24:56;0.35;;;0.20;;
30583;SDS011;17357;59.404;18.414;2022-07-23T07:27:21;1.85;;;0.30;;
30583;SDS011;17357;59.404;18.414;2022-07-23T07:29:46;0.28;;;0.13;;
30583;SDS011;17357;59.404;18.414;2022-07-23T07:32:12;1.90;;;0.37;;
30583;SDS011;17357;59.404;18.414;2022-07-23T07:34:37;0.70;;;0.38;;
30583;SDS011;17357;59.404;18.414;2022-07-23T07:37:02;3.03;;;0.47;;
30583;SDS011;17357;59.404;18.414;2022-07-23T07:39:27;1.15;;;0.20;;
30583;SDS011;17357;59.404;18.414;2022-07-23T07:41:53;0.63;;;0.20;;
30583;SDS011;17357;59.404;18.414;2022-07-23T07:44:18;1.52;;;0.45;;
30583;SDS011;17357;59.404;18.414;2022-07-23T07:46:43;0.43;;;0.20;;
30583;SDS011;17357;59.404;18.414;2022-07-23T07:49:09;2.17;;;0.20;;
30583;SDS011;17357;59.404;18.414;2022-07-23T07:51:34;0.25;;;0.20;;
30583;SDS011;17357;59.404;18.414;2022-07-23T07:54:00;0.30;;;0.30;;
30583;SDS011;17357;59.404;18.414;2022-07-23T07:56:25;0.20;;;0.15;;
30583;SDS011;17357;59.404;18.414;2022-07-23T07:58:51;0.40;;;0.20;;
30583;SDS011;17357;59.404;18.414;2022-07-23T08:01:16;0.70;;;0.20;;
30583;SDS011;17357;59.404;18.414;2022-07-23T08:03:42;0.90;;;0.20;;
30583;SDS011;17357;59.404;18.414;2022-07-23T08:06:07;0.52;;;0.28;;
30583;SDS011;17357;59.404;18.414;2022-07-23T08:08:32;0.88;;;0.30;;
30583;SDS011;17357;59.404;18.414;2022-07-23T08:10:57;0.52;;;0.20;;
30583;SDS011;17357;59.404;18.414;2022-07-23T08:13:23;0.23;;;0.23;;
30583;SDS011;17357;59.404;18.414;2022-07-23T08:15:48;0.85;;;0.22;;
30583;SDS011;17357;59.404;18.414;2022-07-23T08:18:13;0.47;;;0.20;;
30583;SDS011;17357;59.404;18.414;2022-07-23T08:20:38;0.32;;;0.25;;
30583;SDS011;17357;59.404;18.414;2022-07-23T08:23:05;0.45;;;0.10;;
30583;SDS011;17357;59.404;18.414;2022-07-23T08:25:33;0.40;;;0.20;;
30583;SDS011;17357;59.404;18.414;2022-07-23T08:28:01;0.45;;;0.25;;
30583;SDS011;17357;59.404;18.414;2022-07-23T08:30:27;0.60;;;0.10;;
30583;SDS011;17357;59.404;18.414;2022-07-23T08:32:57;0.63;;;0.30;;
30583;SDS011;17357;59.404;18.414;2022-07-23T08:35:28;0.70;;;0.30;;
30583;SDS011;17357;59.404;18.414;2022-07-23T08:37:56;0.32;;;0.10;;
30583;SDS011;17357;59.404;18.414;2022-07-23T08:40:23;0.20;;;0.10;;
30583;SDS011;17357;59.404;18.414;2022-07-23T08:42:51;0.05;;;0.00;;
30583;SDS011;17357;59.404;18.414;2022-07-23T08:45:18;0.68;;;0.30;;
30583;SDS011;17357;59.404;18.414;2022-07-23T08:47:46;2.83;;;0.77;;
30583;SDS011;17357;59.404;18.414;2022-07-23T08:50:14;1.45;;;0.43;;
30583;SDS011;17357;59.404;18.414;2022-07-23T08:52:39;1.05;;;0.30;;
30583;SDS011;17357;59.404;18.414;2022-07-23T08:55:05;1.38;;;0.10;;
30583;SDS011;17357;59.404;18.414;2022-07-23T08:57:32;0.40;;;0.20;;
30583;SDS011;17357;59.404;18.414;2022-07-23T08:59:57;0.77;;;0.73;;
30583;SDS011;17357;59.404;18.414;2022-07-23T09:02:23;1.25;;;0.22;;
30583;SDS011;17357;59.404;18.414;2022-07-23T09:04:48;0.50;;;0.20;;
30583;SDS011;17357;59.404;18.414;2022-07-23T09:07:14;1.42;;;0.20;;
30583;SDS011;17357;59.404;18.414;2022-07-23T09:09:40;2.72;;;0.40;;
30583;SDS011;17357;59.404;18.414;2022-07-23T09:12:09;0.75;;;0.20;;
30583;SDS011;17357;59.404;18.414;2022-07-23T09:14:36;1.27;;;0.40;;
30583;SDS011;17357;59.404;18.414;2022-07-23T09:17:09;0.75;;;0.20;;
30583;SDS011;17357;59.404;18.414;2022-07-23T09:19:35;0.20;;;0.10;;
30583;SDS011;17357;59.404;18.414;2022-07-23T09:22:15;1.10;;;0.30;;
30583;SDS011;17357;59.404;18.414;2022-07-23T09:30:28;0.28;;;0.20;;
30583;SDS011;17357;59.404;18.414;2022-07-23T09:33:05;0.45;;;0.17;;
30583;SDS011;17357;59.404;18.414;2022-07-23T09:38:20;0.52;;;0.17;;
30583;SDS011;17357;59.404;18.414;2022-07-23T09:43:32;0.30;;;0.30;;
30583;SDS011;17357;59.404;18.414;2022-07-23T09:46:17;0.22;;;0.13;;
30583;SDS011;17357;59.404;18.414;2022-07-23T09:48:50;0.20;;;0.10;;
30583;SDS011;17357;59.404;18.414;2022-07-23T09:51:21;2.25;;;0.40;;
30583;SDS011;17357;59.404;18.414;2022-07-23T09:54:00;0.40;;;0.20;;
30583;SDS011;17357;59.404;18.414;2022-07-23T09:56:25;0.50;;;0.20;;
30583;SDS011;17357;59.404;18.414;2022-07-23T09:58:52;0.10;;;0.10;;
30583;SDS011;17357;59.404;18.414;2022-07-23T10:01:29;0.65;;;0.10;;
30583;SDS011;17357;59.404;18.414;2022-07-23T10:03:56;1.20;;;0.47;;
30583;SDS011;17357;59.404;18.414;2022-07-23T10:06:23;0.57;;;0.10;;
30583;SDS011;17357;59.404;18.414;2022-07-23T10:08:48;0.13;;;0.10;;
30583;SDS011;17357;59.404;18.414;2022-07-23T10:11:17;1.50;;;0.38;;
30583;SDS011;17357;59.404;18.414;2022-07-23T10:13:42;0.75;;;0.40;;
30583;SDS011;17357;59.404;18.414;2022-07-23T10:16:34;0.50;;;0.20;;
30583;SDS011;17357;59.404;18.414;2022-07-23T10:18:59;0.60;;;0.22;;
30583;SDS011;17357;59.404;18.414;2022-07-23T10:21:27;0.73;;;0.28;;
30583;SDS011;17357;59.404;18.414;2022-07-23T10:40:34;1.08;;;0.25;;
30583;SDS011;17357;59.404;18.414;2022-07-23T10:42:59;1.95;;;0.30;;
30583;SDS011;17357;59.404;18.414;2022-07-23T10:48:12;0.75;;;0.22;;
30583;SDS011;17357;59.404;18.414;2022-07-23T10:51:05;0.50;;;0.20;;
30583;SDS011;17357;59.404;18.414;2022-07-23T10:53:52;0.43;;;0.17;;
30583;SDS011;17357;59.404;18.414;2022-07-23T10:59:25;0.32;;;0.20;;
30583;SDS011;17357;59.404;18.414;2022-07-23T11:01:50;0.60;;;0.27;;
30583;SDS011;17357;59.404;18.414;2022-07-23T11:04:15;0.20;;;0.20;;
30583;SDS011;17357;59.404;18.414;2022-07-23T11:09:25;0.60;;;0.20;;
30583;SDS011;17357;59.404;18.414;2022-07-23T11:12:17;0.47;;;0.20;;
30583;SDS011;17357;59.404;18.414;2022-07-23T11:22:36;0.80;;;0.30;;
30583;SDS011;17357;59.404;18.414;2022-07-23T11:25:02;1.80;;;0.30;;
30583;SDS011;17357;59.404;18.414;2022-07-23T11:27:37;1.10;;;0.35;;
30583;SDS011;17357;59.404;18.414;2022-07-23T11:30:04;0.45;;;0.32;;
30583;SDS011;17357;59.404;18.414;2022-07-23T11:32:32;0.52;;;0.20;;
30583;SDS011;17357;59.404;18.414;2022-07-23T11:35:00;1.20;;;0.52;;
30583;SDS011;17357;59.404;18.414;2022-07-23T11:37:33;1.98;;;0.40;;
30583;SDS011;17357;59.404;18.414;2022-07-23T11:39:59;0.50;;;0.30;;
30583;SDS011;17357;59.404;18.414;2022-07-23T11:42:25;0.60;;;0.40;;
30583;SDS011;17357;59.404;18.414;2022-07-23T11:44:50;0.75;;;0.20;;
30583;SDS011;17357;59.404;18.414;2022-07-23T11:47:20;0.40;;;0.20;;
30583;SDS011;17357;59.404;18.414;2022-07-23T11:52:18;1.08;;;0.10;;
30583;SDS011;17357;59.404;18.414;2022-07-23T11:54:50;0.45;;;0.20;;
30583;SDS011;17357;59.404;18.414;2022-07-23T11:57:24;0.73;;;0.15;;
30583;SDS011;17357;59.404;18.414;2022-07-23T12:00:02;0.57;;;0.20;;
30583;SDS011;17357;59.404;18.414;2022-07-23T12:02:31;3.40;;;0.20;;
30583;SDS011;17357;59.404;18.414;2022-07-23T12:04:56;2.70;;;0.90;;
30583;SDS011;17357;59.404;18.414;2022-07-23T12:07:25;0.57;;;0.20;;
30583;SDS011;17357;59.404;18.414;2022-07-23T12:09:59;1.58;;;0.30;;
30583;SDS011;17357;59.404;18.414;2022-07-23T12:12:26;0.10;;;0.10;;
30583;SDS011;17357;59.404;18.414;2022-07-23T12:17:26;1.45;;;0.20;;
30583;SDS011;17357;59.404;18.414;2022-07-23T12:19:57;1.05;;;0.45;;
30583;SDS011;17357;59.404;18.414;2022-07-23T12:22:24;0.40;;;0.22;;
30583;SDS011;17357;59.404;18.414;2022-07-23T12:25:00;1.75;;;0.20;;
30583;SDS011;17357;59.404;18.414;2022-07-23T12:27:29;0.43;;;0.28;;
30583;SDS011;17357;59.404;18.414;2022-07-23T12:29:54;2.33;;;0.50;;
30583;SDS011;17357;59.404;18.414;2022-07-23T12:32:26;2.45;;;0.30;;
30583;SDS011;17357;59.404;18.414;2022-07-23T12:35:08;2.60;;;0.25;;
30583;SDS011;17357;59.404;18.414;2022-07-23T12:40:22;0.20;;;0.20;;
30583;SDS011;17357;59.404;18.414;2022-07-23T12:42:51;0.52;;;0.20;;
30583;SDS011;17357;59.404;18.414;2022-07-23T12:45:18;0.10;;;0.10;;
30583;SDS011;17357;59.404;18.414;2022-07-23T12:48:17;0.25;;;0.20;;
30583;SDS011;17357;59.404;18.414;2022-07-23T12:55:51;0.50;;;0.20;;
30583;SDS011;17357;59.404;18.414;2022-07-23T12:58:24;0.43;;;0.20;;
30583;SDS011;17357;59.404;18.414;2022-07-23T13:03:20;0.20;;;0.20;;
30583;SDS011;17357;59.404;18.414;2022-07-23T13:05:49;0.15;;;0.10;;
30583;SDS011;17357;59.404;18.414;2022-07-23T13:08:14;0.73;;;0.23;;
30583;SDS011;17357;59.404;18.414;2022-07-23T13:10:39;0.98;;;0.20;;
30583;SDS011;17357;59.404;18.414;2022-07-23T13:13:09;2.50;;;0.35;;
30583;SDS011;17357;59.404;18.414;2022-07-23T13:15:36;0.40;;;0.20;;
30583;SDS011;17357;59.404;18.414;2022-07-23T13:18:01;1.05;;;0.22;;
30583;SDS011;17357;59.404;18.414;2022-07-23T13:20:26;2.35;;;0.20;;
30583;SDS011;17357;59.404;18.414;2022-07-23T13:22:52;1.33;;;0.40;;
30583;SDS011;17357;59.404;18.414;2022-07-23T13:25:17;0.38;;;0.25;;
30583;SDS011;17357;59.404;18.414;2022-07-23T13:27:42;1.20;;;0.30;;
30583;SDS011;17357;59.404;18.414;2022-07-23T13:30:08;0.60;;;0.10;;
30583;SDS011;17357;59.404;18.414;2022-07-23T13:32:35;0.10;;;0.10;;
30583;SDS011;17357;59.404;18.414;2022-07-23T13:35:01;0.55;;;0.20;;
30583;SDS011;17357;59.404;18.414;2022-07-23T13:37:26;0.60;;;0.30;;
30583;SDS011;17357;59.404;18.414;2022-07-23T13:39:51;4.03;;;0.30;;
30583;SDS011;17357;59.404;18.414;2022-07-23T13:42:16;1.60;;;0.20;;
30583;SDS011;17357;59.404;18.414;2022-07-23T13:44:42;0.60;;;0.38;;
30583;SDS011;17357;59.404;18.414;2022-07-23T13:47:07;0.20;;;0.20;;
30583;SDS011;17357;59.404;18.414;2022-07-23T13:49:32;0.20;;;0.20;;
30583;SDS011;17357;59.404;18.414;2022-07-23T13:51:58;1.17;;;0.45;;
30583;SDS011;17357;59.404;18.414;2022-07-23T13:54:23;0.70;;;0.30;;
30583;SDS011;17357;59.404;18.414;2022-07-23T13:56:48;0.25;;;0.25;;
30583;SDS011;17357;59.404;18.414;2022-07-23T13:59:14;0.93;;;0.20;;
30583;SDS011;17357;59.404;18.414;2022-07-23T14:01:39;1.20;;;0.30;;
30583;SDS011;17357;59.404;18.414;2022-07-23T14:04:04;0.30;;;0.30;;
30583;SDS011;17357;59.404;18.414;2022-07-23T14:06:30;0.32;;;0.10;;
30583;SDS011;17357;59.404;18.414;2022-07-23T14:08:55;0.20;;;0.20;;
30583;SDS011;17357;59.404;18.414;2022-07-23T14:11:20;0.60;;;0.37;;
30583;SDS011;17357;59.404;18.414;2022-07-23T14:13:45;0.10;;;0.10;;
30583;SDS011;17357;59.404;18.414;2022-07-23T14:16:11;0.97;;;0.10;;
30583;SDS011;17357;59.404;18.414;2022-07-23T14:18:36;0.70;;;0.20;;
30583;SDS011;17357;59.404;18.414;2022-07-23T14:21:02;1.67;;;0.38;;
30583;SDS011;17357;59.404;18.414;2022-07-23T14:23:27;0.30;;;0.13;;
30583;SDS011;17357;59.404;18.414;2022-07-23T14:25:54;1.17;;;0.30;;
30583;SDS011;17357;59.404;18.414;2022-07-23T14:28:19;3.45;;;0.40;;
30583;SDS011;17357;59.404;18.414;2022-07-23T14:30:45;0.90;;;0.20;;
30583;SDS011;17357;59.404;18.414;2022-07-23T14:33:10;0.30;;;0.30;;
30583;SDS011;17357;59.404;18.414;2022-07-23T14:35:35;0.60;;;0.30;;
30583;SDS011;17357;59.404;18.414;2022-07-23T14:38:03;1.27;;;0.30;;
30583;SDS011;17357;59.404;18.414;2022-07-23T14:40:29;0.55;;;0.30;;
30583;SDS011;17357;59.404;18.414;2022-07-23T14:42:54;0.45;;;0.20;;
30583;SDS011;17357;59.404;18.414;2022-07-23T14:45:19;0.40;;;0.10;;
30583;SDS011;17357;59.404;18.414;2022-07-23T14:47:45;0.47;;;0.17;;
30583;SDS011;17357;59.404;18.414;2022-07-23T14:50:12;0.20;;;0.20;;
30583;SDS011;17357;59.404;18.414;2022-07-23T14:52:38;1.65;;;0.20;;
30583;SDS011;17357;59.404;18.414;2022-07-23T14:55:04;0.40;;;0.30;;
30583;SDS011;17357;59.404;18.414;2022-07-23T14:57:29;1.05;;;0.40;;
30583;SDS011;17357;59.404;18.414;2022-07-23T14:59:55;0.30;;;0.20;;
30583;SDS011;17357;59.404;18.414;2022-07-23T15:02:20;0.60;;;0.17;;
30583;SDS011;17357;59.404;18.414;2022-07-23T15:04:45;0.30;;;0.10;;
30583;SDS011;17357;59.404;18.414;2022-07-23T15:07:11;0.60;;;0.40;;
30583;SDS011;17357;59.404;18.414;2022-07-23T15:09:36;0.10;;;0.10;;
30583;SDS011;17357;59.404;18.414;2022-07-23T15:12:01;0.75;;;0.20;;
30583;SDS011;17357;59.404;18.414;2022-07-23T15:14:27;0.57;;;0.38;;
30583;SDS011;17357;59.404;18.414;2022-07-23T15:16:52;0.28;;;0.20;;
30583;SDS011;17357;59.404;18.414;2022-07-23T15:19:17;1.63;;;0.50;;
30583;SDS011;17357;59.404;18.414;2022-07-23T15:21:42;0.32;;;0.15;;
30583;SDS011;17357;59.404;18.414;2022-07-23T15:24:08;0.40;;;0.10;;
30583;SDS011;17357;59.404;18.414;2022-07-23T15:26:33;1.75;;;0.30;;
30583;SDS011;17357;59.404;18.414;2022-07-23T15:28:59;0.10;;;0.10;;
30583;SDS011;17357;59.404;18.414;2022-07-23T15:31:24;0.37;;;0.20;;